South Newfane, VT (05351)

10:59 PM EDT on July 27, 2017 (GMT -0400)
Center of the Universe | | Change Station

Elev 590 ft 42.95 °N, 72.66 °W | Updated 0 second ago

Partly Cloudy
Partly Cloudy
63.0 °F
Feels Like 63.0 °F
N
0.0
Wind Variable Wind from SE
Gusts 0.0 mph

Today
High -- | Low -- °F
--% Chance of Precip.
Yesterday
High -- | Low -- °F
Precip. -- in
Pressure 29.93 in
Visibility 8.0 miles
Clouds Mostly Cloudy 800 ft
Dew Point 62 °F
Humidity 97%
Rainfall 0.15 in
Snow Depth Not available.
5:36 AM 8:17 PM
Waxing Crescent, 26% visible
METAR KEEN 280256Z AUTO 18003KT 8SM BKN008 18/18 A2988 RMK AO2 SLP134 T01780178 50003
Pressure 29.93 in
Visibility 8.0 miles
Clouds Mostly Cloudy 800 ft
Dew Point 62 °F
Humidity 97%
Rainfall 0.15 in
Snow Depth Not available.
5:36 AM 8:17 PM
Waxing Crescent, 26% visible
METAR KEEN 280256Z AUTO 18003KT 8SM BKN008 18/18 A2988 RMK AO2 SLP134 T01780178 50003

Get Severe Weather Alerts

Thanks for signing up!

Be on the lookout for a verification email in your inbox.

You'll start receiving the daily forecast at 6 AM.

×

10-Day Weather Forecast

Almanac

Astronomy

Jul. 27, 2017 Rise Set
Actual Time
Civil Twilight
Nautical Twilight
Astronomical Twilight
Moon
Length of Visible Light
Length of Day
Tomorrow will be .
, % of the Moon is Illuminated

Today's Extremes

State Highs State Lows

Community

WunderPhotos

Category 6

Welcome to Category 6. This is the collective home for Weather Underground's featured writeups by Dr. Jeff Masters (right), Bob Henson (left), Chris Burt, and other regular contributors.

Nearby

Air Quality

  Air Quality AQ Index Pollutant
Not available.

Snow Depth

Station Depth Elevation

Earthquake Activity

City Distance Mag. Time & Date
Minimum magnitude displayed is 2.5.

Coastal Water Temperatures

Place Temperature

Stations

Nearby Weather Stations

Station Location Temp. Windchill Dew Point Humidity Wind Precip. Elev Updated Type
                   

Watches & Warnings

There are currently no watches in effect.